createdAt,value
2018-07-03T00:00:05.522Z,91.28
2018-07-03T00:01:05.524Z,91.57
2018-07-03T00:02:05.522Z,91.57
2018-07-03T00:03:05.524Z,90.81
2018-07-03T00:04:05.527Z,90.33
2018-07-03T00:05:05.526Z,89.94
2018-07-03T00:06:05.532Z,90.42
2018-07-03T00:07:05.531Z,90.33
2018-07-03T00:08:05.530Z,90.14
2018-07-03T00:09:05.531Z,89.56
2018-07-03T00:10:05.532Z,89.56
2018-07-03T00:11:05.532Z,89.85
2018-07-03T00:12:05.534Z,90.33
2018-07-03T00:13:05.538Z,90.71
2018-07-03T00:14:05.536Z,91.86
2018-07-03T00:15:05.537Z,91.48
2018-07-03T00:16:05.539Z,91.57
2018-07-03T00:17:05.540Z,91.77
2018-07-03T00:18:05.540Z,92.24
2018-07-03T00:19:05.540Z,92.44
2018-07-03T00:20:05.541Z,92.05
2018-07-03T00:21:05.544Z,91.48
2018-07-03T00:22:05.544Z,92.44
2018-07-03T00:23:05.545Z,90.42
2018-07-03T00:24:05.545Z,90.61
2018-07-03T00:25:05.549Z,91.28
2018-07-03T00:26:05.547Z,91.28
2018-07-03T00:27:05.548Z,90.71
2018-07-03T00:28:05.550Z,90.42
2018-07-03T00:29:05.551Z,90.90
2018-07-03T00:30:05.554Z,90.81
2018-07-03T00:31:05.552Z,90.71
2018-07-03T00:32:05.554Z,91.38
2018-07-03T00:33:05.555Z,91.09
2018-07-03T00:34:05.556Z,91.38
2018-07-03T00:35:05.556Z,91.38
2018-07-03T00:36:05.557Z,91.34
2018-07-03T00:37:05.558Z,92.10
2018-07-03T00:38:05.558Z,92.30
2018-07-03T00:39:05.560Z,92.68
2018-07-03T00:40:05.561Z,92.49
2018-07-03T00:41:05.561Z,92.49
2018-07-03T00:42:05.559Z,92.82
2018-07-03T00:43:05.562Z,93.35
2018-07-03T00:44:05.563Z,93.16
2018-07-03T00:45:05.565Z,92.49
2018-07-03T00:46:05.565Z,92.15
2018-07-03T00:47:05.567Z,93.06
2018-07-03T00:48:05.568Z,93.35
2018-07-03T00:49:05.568Z,92.68
2018-07-03T00:50:05.569Z,93.73
2018-07-03T00:51:05.568Z,93.63
2018-07-03T00:52:05.571Z,94.12
2018-07-03T00:53:05.571Z,93.93
2018-07-03T00:54:05.571Z,93.63
2018-07-03T00:55:05.573Z,92.77
2018-07-03T00:56:05.574Z,92.77
2018-07-03T00:57:05.576Z,93.54
2018-07-03T00:58:05.575Z,93.30
2018-07-03T00:59:05.576Z,93.59
2018-07-03T01:00:05.577Z,93.88
2018-07-03T01:01:05.579Z,93.88
2018-07-03T01:02:05.578Z,94.55
2018-07-03T01:03:05.579Z,93.98
2018-07-03T01:04:05.581Z,93.88
2018-07-03T01:05:05.580Z,94.45
2018-07-03T01:06:05.579Z,94.50
2018-07-03T01:07:05.580Z,94.74
2018-07-03T01:08:05.582Z,94.89
2018-07-03T01:09:05.582Z,94.79
2018-07-03T01:10:05.582Z,94.50
2018-07-03T01:11:05.584Z,93.93
2018-07-03T01:12:05.585Z,94.79
2018-07-03T01:13:05.586Z,94.02
2018-07-03T01:14:05.584Z,94.21
2018-07-03T01:15:05.585Z,94.26
2018-07-03T01:16:05.588Z,94.55
2018-07-03T01:17:05.587Z,95.26
2018-07-03T01:18:05.588Z,95.56
2018-07-03T01:19:05.588Z,94.45
2018-07-03T01:20:05.592Z,94.26
2018-07-03T01:21:05.591Z,95.03
2018-07-03T01:22:05.591Z,95.12
2018-07-03T01:23:05.591Z,94.64
2018-07-03T01:24:05.591Z,95.03
2018-07-03T01:25:05.593Z,95.98
2018-07-03T01:26:05.592Z,95.98
2018-07-03T01:27:05.593Z,95.51
2018-07-03T01:28:05.594Z,95.60
2018-07-03T01:29:05.615Z,95.70
2018-07-03T01:30:05.594Z,95.79
2018-07-03T01:31:05.595Z,96.22
2018-07-03T01:32:05.595Z,96.03
2018-07-03T01:33:05.601Z,95.84
2018-07-03T01:34:05.596Z,96.37
2018-07-03T01:35:05.597Z,96.61
2018-07-03T01:36:05.600Z,96.18
2018-07-03T01:37:05.606Z,96.18
2018-07-03T01:38:05.599Z,96.42
2018-07-03T01:39:05.600Z,96.42
2018-07-03T01:40:05.599Z,96.27
2018-07-03T01:41:05.608Z,95.75
2018-07-03T01:42:05.600Z,95.51
2018-07-03T01:43:05.603Z,96.27
2018-07-03T01:44:05.603Z,95.22
2018-07-03T01:45:05.604Z,95.60
2018-07-03T01:46:05.603Z,95.75
2018-07-03T01:47:05.603Z,96.08
2018-07-03T01:48:05.604Z,96.37
2018-07-03T01:49:05.606Z,96.18
2018-07-03T01:50:05.606Z,96.37
2018-07-03T01:51:05.606Z,95.41
2018-07-03T01:52:05.606Z,95.12
2018-07-03T01:53:05.607Z,95.12
2018-07-03T01:54:05.610Z,94.64
2018-07-03T01:55:05.609Z,94.93
2018-07-03T01:56:05.609Z,95.51
2018-07-03T01:57:05.608Z,94.84
2018-07-03T01:58:05.608Z,95.03
2018-07-03T01:59:05.610Z,95.31
2018-07-03T02:00:05.615Z,95.03
2018-07-03T02:01:05.611Z,95.12
2018-07-03T02:02:05.610Z,94.64
2018-07-03T02:03:05.614Z,94.93
2018-07-03T02:04:05.613Z,94.64
2018-07-03T02:05:05.615Z,94.93
2018-07-03T02:06:05.614Z,94.84
2018-07-03T02:07:05.615Z,94.74
2018-07-03T02:08:05.618Z,95.31
2018-07-03T02:09:05.619Z,95.22
2018-07-03T02:10:05.615Z,95.51
2018-07-03T02:11:05.617Z,95.89
2018-07-03T02:12:05.616Z,95.51
2018-07-03T02:13:05.620Z,94.55
2018-07-03T02:14:05.618Z,94.55
2018-07-03T02:15:05.617Z,94.64
2018-07-03T02:16:05.618Z,95.41
2018-07-03T02:17:05.619Z,95.51
2018-07-03T02:18:05.618Z,95.41
2018-07-03T02:19:05.620Z,95.79
2018-07-03T02:20:05.619Z,95.89
2018-07-03T02:21:05.620Z,95.70
2018-07-03T02:22:05.620Z,96.27
2018-07-03T02:23:05.620Z,95.51
2018-07-03T02:24:05.620Z,95.98
2018-07-03T02:25:05.622Z,95.98
2018-07-03T02:26:05.622Z,96.56
2018-07-03T02:27:05.622Z,96.56
2018-07-03T02:28:05.623Z,97.14
2018-07-03T02:29:05.623Z,96.56
2018-07-03T02:30:05.625Z,96.75
2018-07-03T02:31:05.624Z,97.04
2018-07-03T02:32:05.626Z,96.56
2018-07-03T02:33:05.626Z,96.18
2018-07-03T02:34:05.625Z,96.27
2018-07-03T02:35:05.626Z,97.04
2018-07-03T02:36:05.628Z,96.84
2018-07-03T02:37:05.628Z,96.84
2018-07-03T02:38:05.627Z,96.08
2018-07-03T02:39:05.670Z,96.37
2018-07-03T02:40:05.630Z,96.47
2018-07-03T02:41:05.629Z,96.42
2018-07-03T02:42:05.636Z,96.03
2018-07-03T02:43:05.628Z,96.08
2018-07-03T02:44:05.629Z,96.37
2018-07-03T02:45:05.630Z,96.37
2018-07-03T02:46:05.630Z,97.23
2018-07-03T02:47:05.629Z,97.04
2018-07-03T02:48:05.630Z,96.47
2018-07-03T02:49:05.631Z,96.37
2018-07-03T02:50:05.631Z,97.14
2018-07-03T02:51:05.631Z,97.23
2018-07-03T02:52:05.644Z,97.04
2018-07-03T02:53:05.632Z,96.94
2018-07-03T02:54:05.631Z,97.09
2018-07-03T02:55:05.632Z,96.99
2018-07-03T02:56:05.633Z,97.28
2018-07-03T02:57:05.637Z,97.85
2018-07-03T02:58:05.633Z,96.99
2018-07-03T02:59:05.635Z,96.99
2018-07-03T03:00:05.634Z,97.18
2018-07-03T03:01:05.634Z,96.13
2018-07-03T03:02:05.634Z,95.07
2018-07-03T03:03:05.634Z,95.75
2018-07-03T03:04:05.638Z,96.13
2018-07-03T03:05:05.635Z,95.75
2018-07-03T03:06:05.634Z,95.46
2018-07-03T03:07:05.635Z,95.46
2018-07-03T03:08:05.638Z,94.69
2018-07-03T03:09:05.637Z,94.40
2018-07-03T03:10:05.637Z,94.40
2018-07-03T03:11:05.638Z,94.31
2018-07-03T03:12:05.636Z,94.40
2018-07-03T03:13:05.637Z,95.27
2018-07-03T03:14:05.637Z,94.50
2018-07-03T03:15:05.638Z,94.31
2018-07-03T03:16:05.639Z,94.40
2018-07-03T03:17:05.637Z,94.50
2018-07-03T03:18:05.639Z,94.60
2018-07-03T03:19:05.637Z,94.50
2018-07-03T03:20:05.639Z,94.69
2018-07-03T03:21:05.638Z,94.40
2018-07-03T03:22:05.638Z,94.60
2018-07-03T03:23:05.637Z,95.75
2018-07-03T03:24:05.643Z,96.13
2018-07-03T03:25:05.639Z,96.13
2018-07-03T03:26:05.639Z,96.42
2018-07-03T03:27:05.638Z,96.99
2018-07-03T03:28:05.639Z,97.09
2018-07-03T03:29:05.640Z,97.80
2018-07-03T03:30:05.638Z,98.28
2018-07-03T03:31:05.639Z,98.19
2018-07-03T03:32:05.640Z,98.76
2018-07-03T03:33:05.639Z,98.66
2018-07-03T03:34:05.637Z,98.57
2018-07-03T03:35:05.641Z,98.28
2018-07-03T03:36:05.639Z,98.19
2018-07-03T03:37:05.638Z,98.47
2018-07-03T03:38:05.641Z,98.76
2018-07-03T03:39:05.639Z,98.95
2018-07-03T03:40:05.637Z,98.57
2018-07-03T03:41:05.637Z,98.57
2018-07-03T03:42:05.638Z,98.14
2018-07-03T03:43:05.637Z,97.95
2018-07-03T03:44:05.637Z,98.00
2018-07-03T03:45:05.687Z,97.95
2018-07-03T03:46:05.646Z,98.33
2018-07-03T03:47:05.637Z,98.43
2018-07-03T03:48:05.637Z,97.95
2018-07-03T03:49:05.637Z,98.14
2018-07-03T03:50:05.641Z,97.75
2018-07-03T03:51:05.638Z,97.66
2018-07-03T03:52:05.640Z,98.14
2018-07-03T03:53:05.637Z,98.14
2018-07-03T03:54:05.637Z,97.75
2018-07-03T03:55:05.638Z,97.56
2018-07-03T03:56:05.637Z,96.99
2018-07-03T03:57:05.636Z,96.32
2018-07-03T03:58:05.636Z,96.22
2018-07-03T03:59:05.637Z,96.13
2018-07-03T04:00:05.638Z,96.13
2018-07-03T04:01:05.637Z,95.36
2018-07-03T04:02:05.649Z,94.60
2018-07-03T04:03:05.636Z,94.69
2018-07-03T04:04:05.637Z,95.94
2018-07-03T04:05:05.638Z,96.32
2018-07-03T04:06:05.636Z,95.51
2018-07-03T04:07:05.636Z,95.89
2018-07-03T04:08:05.637Z,95.60
2018-07-03T04:09:05.637Z,96.47
2018-07-03T04:10:05.636Z,95.60
2018-07-03T04:11:05.636Z,96.18
2018-07-03T04:12:05.636Z,96.56
2018-07-03T04:13:05.637Z,96.37
2018-07-03T04:14:05.639Z,96.27
2018-07-03T04:15:05.638Z,95.60
2018-07-03T04:16:05.636Z,96.18
2018-07-03T04:17:05.638Z,96.56
2018-07-03T04:18:05.636Z,96.66
2018-07-03T04:19:05.641Z,96.84
2018-07-03T04:20:05.638Z,97.04
2018-07-03T04:21:05.638Z,96.75
2018-07-03T04:22:05.638Z,96.56
2018-07-03T04:23:05.639Z,96.18
2018-07-03T04:24:05.638Z,96.66
2018-07-03T04:25:05.640Z,96.37
2018-07-03T04:26:05.638Z,96.47
2018-07-03T04:27:05.640Z,96.37
2018-07-03T04:28:05.639Z,96.08
2018-07-03T04:29:05.641Z,96.94
2018-07-03T04:30:05.640Z,96.89
2018-07-03T04:31:05.641Z,96.99
2018-07-03T04:32:05.641Z,97.75
2018-07-03T04:33:05.642Z,97.75
2018-07-03T04:34:05.666Z,97.95
2018-07-03T04:35:05.641Z,97.85
2018-07-03T04:36:05.641Z,98.05
2018-07-03T04:37:05.641Z,98.47
2018-07-03T04:38:05.640Z,97.95
2018-07-03T04:39:05.642Z,98.19
2018-07-03T04:40:05.643Z,97.52
2018-07-03T04:41:05.642Z,97.52
2018-07-03T04:42:05.642Z,98.28
2018-07-03T04:43:05.642Z,98.10
2018-07-03T04:44:05.642Z,98.00
2018-07-03T04:45:05.643Z,97.80
2018-07-03T04:46:05.649Z,98.00
2018-07-03T04:47:05.647Z,98.00
2018-07-03T04:48:05.644Z,98.19
2018-07-03T04:49:05.644Z,97.80
2018-07-03T04:50:05.643Z,98.19
2018-07-03T04:51:05.645Z,98.00
2018-07-03T04:52:05.645Z,98.38
2018-07-03T04:53:05.646Z,97.80
2018-07-03T04:54:05.646Z,98.10
2018-07-03T04:55:05.646Z,97.80
2018-07-03T04:56:05.649Z,97.80
2018-07-03T04:57:05.648Z,98.10
2018-07-03T04:58:05.646Z,97.33
2018-07-03T04:59:05.647Z,97.76
2018-07-03T05:00:05.648Z,97.56
2018-07-03T05:01:05.653Z,97.23
2018-07-03T05:02:05.649Z,97.28
2018-07-03T05:03:05.649Z,96.22
2018-07-03T05:04:05.650Z,96.70
2018-07-03T05:05:05.652Z,96.42
2018-07-03T05:06:05.650Z,96.61
2018-07-03T05:07:05.653Z,96.32
2018-07-03T05:08:05.654Z,96.03
2018-07-03T05:09:05.657Z,96.08
2018-07-03T05:10:05.662Z,95.79
2018-07-03T05:11:05.656Z,95.60
2018-07-03T05:12:05.655Z,95.41
2018-07-03T05:13:05.656Z,95.21
2018-07-03T05:14:05.658Z,94.93
2018-07-03T05:15:05.656Z,95.21
2018-07-03T05:16:05.660Z,94.74
2018-07-03T05:17:05.660Z,94.74
2018-07-03T05:18:05.660Z,94.79
2018-07-03T05:19:05.662Z,94.69
2018-07-03T05:20:05.663Z,94.59
2018-07-03T05:21:05.663Z,94.69
2018-07-03T05:22:05.668Z,93.82
2018-07-03T05:23:05.665Z,93.82
2018-07-03T05:24:05.666Z,94.02
2018-07-03T05:25:05.672Z,94.21
2018-07-03T05:26:05.668Z,94.02
2018-07-03T05:27:05.669Z,94.59
2018-07-03T05:28:05.671Z,94.49
2018-07-03T05:29:05.672Z,94.79
2018-07-03T05:30:05.675Z,94.12
2018-07-03T05:31:05.673Z,94.02
2018-07-03T05:32:05.675Z,93.54
2018-07-03T05:33:05.678Z,94.02
2018-07-03T05:34:05.677Z,95.07
2018-07-03T05:35:05.678Z,95.07
2018-07-03T05:36:05.681Z,95.26
2018-07-03T05:37:05.685Z,95.46
2018-07-03T05:38:05.683Z,95.36
2018-07-03T05:39:05.683Z,94.79
2018-07-03T05:40:05.686Z,94.69
2018-07-03T05:41:05.686Z,93.92
2018-07-03T05:42:05.688Z,94.21
2018-07-03T05:43:05.690Z,94.69
2018-07-03T05:44:05.691Z,95.26
2018-07-03T05:45:05.692Z,95.41
2018-07-03T05:46:05.697Z,95.17
2018-07-03T05:47:05.695Z,94.79
2018-07-03T05:48:05.697Z,94.54
2018-07-03T05:49:05.717Z,94.74
2018-07-03T05:50:05.794Z,94.07
2018-07-03T05:51:05.700Z,93.59
2018-07-03T05:52:05.708Z,93.87
2018-07-03T05:53:05.728Z,93.97
2018-07-03T05:54:05.741Z,93.77
2018-07-03T05:55:05.728Z,94.07
2018-07-03T05:56:05.711Z,94.16
2018-07-03T05:57:05.709Z,94.16
2018-07-03T05:58:05.772Z,93.49
2018-07-03T05:59:05.712Z,94.07
2018-07-03T06:00:05.715Z,93.30
2018-07-03T06:01:05.716Z,92.72
2018-07-03T06:02:05.934Z,92.24
2018-07-03T06:03:05.717Z,91.57
2018-07-03T06:04:05.725Z,91.76
2018-07-03T06:05:05.723Z,91.57
2018-07-03T06:06:05.722Z,91.61
2018-07-03T06:07:05.724Z,91.81
2018-07-03T06:08:05.726Z,92.67
2018-07-03T06:09:05.754Z,92.24
2018-07-03T06:10:05.818Z,92.14
2018-07-03T06:11:05.735Z,92.82
2018-07-03T06:12:05.732Z,92.24
2018-07-03T06:13:05.734Z,91.71
2018-07-03T06:14:05.735Z,91.61
2018-07-03T06:15:05.738Z,90.94
2018-07-03T06:16:05.743Z,90.75
2018-07-03T06:17:05.740Z,91.04
2018-07-03T06:18:05.745Z,90.31
2018-07-03T06:19:05.745Z,89.83
2018-07-03T06:20:05.747Z,89.45
2018-07-03T06:21:05.804Z,90.31
2018-07-03T06:22:05.749Z,91.66
2018-07-03T06:23:05.754Z,91.08
2018-07-03T06:24:05.753Z,89.83
2018-07-03T06:25:05.755Z,89.74
2018-07-03T06:26:05.756Z,89.07
2018-07-03T06:27:05.760Z,89.59
2018-07-03T06:28:05.763Z,89.40
2018-07-03T06:29:05.911Z,88.73
2018-07-03T06:30:05.766Z,88.92
2018-07-03T06:31:05.768Z,88.82
2018-07-03T06:32:05.774Z,89.40
2018-07-03T06:33:05.776Z,89.78
2018-07-03T06:34:05.774Z,89.59
2018-07-03T06:35:06.096Z,88.63
2018-07-03T06:36:05.781Z,86.80
2018-07-03T06:37:05.782Z,87.67
2018-07-03T06:38:05.783Z,88.24
2018-07-03T06:39:05.961Z,87.76
2018-07-03T06:40:05.788Z,89.07
2018-07-03T06:41:05.991Z,89.64
2018-07-03T06:42:05.793Z,90.03
2018-07-03T06:43:05.795Z,90.51
2018-07-03T06:44:05.797Z,89.83
2018-07-03T06:45:06.186Z,89.01
2018-07-03T06:46:05.801Z,87.96
2018-07-03T06:47:05.803Z,87.48
2018-07-03T06:48:05.806Z,87.29
2018-07-03T06:49:05.809Z,87.76
2018-07-03T06:50:05.811Z,87.71
2018-07-03T06:51:05.813Z,88.82
2018-07-03T06:52:06.353Z,88.92
2018-07-03T06:53:06.053Z,89.88
2018-07-03T06:54:06.017Z,89.40
2018-07-03T06:55:05.824Z,89.69
2018-07-03T06:56:05.828Z,87.67
2018-07-03T06:57:05.831Z,87.42
2018-07-03T06:58:05.831Z,88.29
2018-07-03T06:59:05.835Z,88.39
2018-07-03T07:00:05.836Z,88.24
2018-07-03T07:01:05.839Z,88.39
2018-07-03T07:02:05.840Z,87.42
2018-07-03T07:03:05.844Z,86.65
2018-07-03T07:04:05.850Z,86.56
2018-07-03T07:05:05.848Z,86.31
2018-07-03T07:06:05.852Z,86.08
2018-07-03T07:07:05.854Z,86.89
2018-07-03T07:08:05.857Z,86.85
2018-07-03T07:09:06.008Z,87.90
2018-07-03T07:10:05.862Z,88.77
2018-07-03T07:11:05.868Z,89.54
2018-07-03T07:12:05.869Z,88.77
2018-07-03T07:13:05.871Z,88.00
2018-07-03T07:14:06.063Z,87.04
2018-07-03T07:15:05.917Z,86.99
2018-07-03T07:16:05.881Z,87.04
2018-07-03T07:17:05.884Z,87.37
2018-07-03T07:18:05.886Z,87.62
2018-07-03T07:19:05.889Z,88.81
2018-07-03T07:20:05.891Z,88.71
2018-07-03T07:21:05.895Z,87.27
2018-07-03T07:22:05.901Z,88.62
2018-07-03T07:23:05.911Z,89.53
2018-07-03T07:24:05.904Z,88.04
2018-07-03T07:25:05.908Z,88.62
2018-07-03T07:26:05.911Z,89.49
2018-07-03T07:27:05.922Z,88.81
2018-07-03T07:28:05.917Z,87.41
2018-07-03T07:29:05.922Z,87.22
2018-07-03T07:30:05.924Z,86.01
2018-07-03T07:31:05.928Z,86.30
2018-07-03T07:32:05.934Z,87.65
2018-07-03T07:33:05.935Z,87.94
2018-07-03T07:34:05.939Z,86.40
2018-07-03T07:35:05.941Z,86.01
2018-07-03T07:36:05.945Z,87.26
2018-07-03T07:37:05.949Z,87.50
2018-07-03T07:38:05.952Z,88.17
2018-07-03T07:39:05.960Z,86.25
2018-07-03T07:40:05.961Z,86.05
2018-07-03T07:41:05.968Z,85.67
2018-07-03T07:42:05.971Z,86.25
2018-07-03T07:43:05.976Z,83.69
2018-07-03T07:44:05.982Z,85.47
2018-07-03T07:45:05.986Z,85.47
2018-07-03T07:46:05.992Z,85.28
2018-07-03T07:47:05.998Z,83.69
2018-07-03T07:48:06.003Z,84.55
2018-07-03T07:49:06.028Z,85.27
2018-07-03T07:50:06.013Z,83.20
2018-07-03T07:51:06.019Z,84.55
2018-07-03T07:52:06.024Z,82.92
2018-07-03T07:55:40.813Z,82.01
2018-07-03T07:56:40.800Z,83.74
2018-07-03T07:57:40.810Z,83.84
2018-07-03T07:58:40.809Z,84.42
2018-07-03T07:59:40.814Z,87.02
2018-07-03T08:00:40.821Z,85.77
2018-07-03T08:01:40.825Z,87.12
2018-07-03T08:02:40.829Z,86.10
2018-07-03T08:03:40.835Z,85.71
2018-07-03T08:04:40.842Z,84.07
2018-07-03T08:05:40.846Z,83.40
2018-07-03T08:06:40.898Z,83.01
2018-07-03T08:07:40.864Z,82.62
2018-07-03T08:08:40.858Z,84.50
2018-07-03T08:09:40.865Z,85.94
2018-07-03T08:10:40.869Z,86.24
2018-07-03T08:11:40.873Z,86.04
2018-07-03T08:12:41.144Z,85.85
2018-07-03T08:13:40.884Z,84.84
2018-07-03T08:14:40.936Z,85.23
2018-07-03T08:15:41.334Z,84.93
2018-07-03T08:16:41.456Z,84.10
2018-07-03T08:17:41.184Z,81.05
2018-07-03T08:18:41.145Z,80.99
2018-07-03T08:19:41.222Z,82.89
2018-07-03T08:20:41.032Z,81.82
2018-07-03T08:21:40.930Z,80.82
2018-07-03T08:22:40.948Z,81.11
2018-07-03T08:23:40.941Z,81.68
2018-07-03T08:24:40.953Z,81.01
2018-07-03T08:25:40.994Z,81.68
2018-07-03T08:26:40.973Z,80.76
2018-07-03T08:27:40.966Z,80.38
2018-07-03T08:28:41.014Z,80.47
2018-07-03T08:29:40.980Z,81.49
2018-07-03T08:30:40.987Z,81.59
2018-07-03T08:31:40.992Z,82.90
2018-07-03T08:32:41.001Z,83.67
2018-07-03T08:33:41.007Z,84.35
2018-07-03T08:34:41.010Z,82.56
2018-07-03T08:35:41.016Z,83.04
2018-07-03T08:36:41.026Z,82.60
2018-07-03T08:37:41.029Z,81.57
2018-07-03T08:38:41.056Z,81.37
2018-07-03T08:39:41.092Z,79.08
2018-07-03T08:40:41.051Z,75.40
2018-07-03T08:41:41.063Z,75.50
2018-07-03T08:42:41.069Z,76.02
2018-07-03T08:43:41.076Z,74.82
2018-07-03T08:44:41.086Z,69.56
2018-07-03T08:45:41.093Z,70.82
2018-07-03T08:46:41.101Z,71.82
2018-07-03T08:47:41.270Z,72.69
2018-07-03T08:48:41.120Z,71.28
2018-07-03T08:49:41.129Z,70.73
2018-07-03T08:50:41.138Z,69.70
2018-07-03T08:51:41.189Z,68.05
2018-07-03T08:52:41.159Z,64.30
2018-07-03T08:53:41.168Z,62.88
2018-07-03T08:54:41.183Z,63.07
2018-07-03T08:55:41.189Z,61.25
2018-07-03T08:56:41.201Z,58.95
2018-07-03T08:57:41.213Z,59.03
2018-07-03T08:58:41.220Z,57.69
2018-07-03T08:59:41.231Z,58.95
2018-07-03T09:00:41.244Z,57.21
2018-07-03T09:01:41.254Z,57.43
2018-07-03T09:02:41.267Z,56.24
2018-07-03T09:03:41.285Z,57.40
2018-07-03T09:04:41.290Z,57.86
2018-07-03T09:05:41.301Z,58.70
2018-07-03T09:06:41.702Z,60.09
2018-07-03T09:07:41.328Z,59.51
2018-07-03T09:08:41.339Z,58.64
2018-07-03T09:09:41.349Z,59.80
2018-07-03T09:10:41.361Z,57.01
2018-07-03T09:11:41.385Z,55.55
2018-07-03T09:12:41.387Z,57.01
2018-07-03T09:13:41.399Z,55.19
2018-07-03T09:14:41.409Z,57.33
2018-07-03T09:15:41.424Z,56.16
2018-07-03T09:16:41.436Z,55.58
2018-07-03T09:17:41.450Z,52.06
2018-07-03T09:18:41.464Z,55.02
2018-07-03T09:19:41.474Z,55.79
2018-07-03T09:20:41.489Z,55.77
2018-07-03T09:21:41.503Z,55.08
2018-07-03T09:22:41.512Z,54.41
2018-07-03T09:23:41.562Z,55.89
2018-07-03T09:24:41.538Z,53.95
2018-07-03T09:25:41.551Z,53.66
2018-07-03T09:26:41.565Z,53.27
2018-07-03T09:27:41.575Z,56.76
2018-07-03T09:28:41.588Z,57.57
2018-07-03T09:29:41.600Z,58.67
2018-07-03T09:30:41.624Z,58.21
2018-07-03T09:31:41.624Z,55.68
2018-07-03T09:32:41.637Z,54.13
2018-07-03T09:33:41.656Z,56.07
2018-07-03T09:34:41.662Z,54.03
2018-07-03T09:35:41.675Z,56.07
2018-07-03T09:36:41.688Z,52.09
2018-07-03T09:37:41.701Z,51.18
2018-07-03T09:38:41.712Z,51.75
2018-07-03T09:39:41.725Z,54.10
2018-07-03T09:40:41.737Z,56.46
2018-07-03T09:41:41.775Z,51.23
2018-07-03T09:42:41.761Z,49.80
2018-07-03T09:43:41.774Z,51.72
2018-07-03T09:44:41.787Z,52.04
2018-07-03T09:45:41.803Z,49.32
2018-07-03T09:46:41.813Z,51.87
2018-07-03T09:47:41.826Z,47.10
2018-07-03T09:48:41.840Z,50.60
2018-07-03T09:49:41.851Z,50.41
2018-07-03T09:50:41.863Z,48.56
2018-07-03T09:51:41.877Z,49.63
2018-07-03T09:52:41.890Z,46.20
2018-07-03T09:53:41.903Z,45.11
2018-07-03T09:54:41.946Z,46.06
2018-07-03T09:55:42.008Z,47.03
2018-07-03T09:56:41.942Z,47.83
2018-07-03T09:57:41.966Z,50.34
2018-07-03T09:58:41.965Z,48.10
2018-07-03T09:59:41.978Z,48.88
2018-07-03T10:00:41.991Z,50.31
2018-07-03T10:01:42.003Z,45.14
2018-07-03T10:02:42.013Z,47.18
2018-07-03T10:03:42.023Z,49.32
2018-07-03T10:04:42.040Z,45.94
2018-07-03T10:05:42.046Z,47.88
2018-07-03T10:06:42.057Z,49.15
2018-07-03T10:07:42.068Z,48.27
2018-07-03T10:08:42.079Z,49.99
2018-07-03T10:09:42.089Z,49.32
2018-07-03T10:10:42.099Z,49.97
2018-07-03T10:11:42.108Z,46.94
2018-07-03T10:12:42.118Z,46.62
2018-07-03T10:13:42.128Z,50.02
2018-07-03T10:14:42.138Z,48.18
2018-07-03T10:15:42.360Z,49.90
2018-07-03T10:16:42.155Z,52.32
2018-07-03T10:17:42.168Z,49.00
2018-07-03T10:18:42.172Z,47.84
2018-07-03T10:19:42.181Z,49.00
2018-07-03T10:20:42.192Z,48.39
2018-07-03T10:21:42.197Z,46.17
2018-07-03T10:22:42.205Z,45.95
2018-07-03T10:23:42.213Z,49.24
2018-07-03T10:24:42.248Z,48.95
2018-07-03T10:25:42.229Z,49.24
2018-07-03T10:26:42.234Z,49.92
2018-07-03T10:27:42.242Z,49.05
2018-07-03T10:28:42.273Z,49.70
2018-07-03T10:29:42.283Z,52.61
2018-07-03T10:30:42.265Z,51.54
2018-07-03T10:31:42.298Z,52.51
2018-07-03T10:32:42.276Z,51.93
2018-07-03T10:33:42.284Z,52.22
2018-07-03T10:34:42.288Z,53.57
2018-07-03T10:35:42.297Z,51.93
2018-07-03T10:36:42.304Z,52.41
2018-07-03T10:37:42.311Z,53.19
2018-07-03T10:38:42.315Z,53.19
2018-07-03T10:39:42.320Z,50.48
2018-07-03T10:40:42.332Z,51.73
2018-07-03T10:41:42.334Z,52.00
2018-07-03T10:42:42.339Z,53.55
2018-07-03T10:43:42.345Z,53.55
2018-07-03T10:44:42.352Z,54.32
2018-07-03T10:45:42.395Z,54.10
2018-07-03T10:46:42.362Z,54.58
2018-07-03T10:47:42.368Z,54.39
2018-07-03T10:48:42.410Z,53.61
2018-07-03T10:49:42.380Z,53.13
2018-07-03T10:50:42.389Z,55.45
2018-07-03T10:51:42.391Z,55.26
2018-07-03T10:52:42.438Z,61.60
2018-07-03T10:53:42.403Z,67.17
2018-07-03T10:54:42.408Z,70.84
2018-07-03T10:55:42.412Z,73.60
2018-07-03T10:56:42.419Z,74.85
2018-07-03T10:57:42.428Z,77.65
2018-07-03T10:58:42.429Z,78.13
2018-07-03T10:59:42.485Z,79.39
2018-07-03T11:00:42.440Z,80.22
2018-07-03T11:01:42.445Z,80.89
2018-07-03T11:02:42.626Z,82.24
2018-07-03T11:03:42.853Z,84.03
2018-07-03T11:04:42.462Z,83.94
2018-07-03T11:05:42.500Z,85.67
2018-07-03T11:06:42.471Z,85.86
2018-07-03T11:07:42.582Z,86.05
2018-07-03T11:08:42.578Z,86.88
2018-07-03T11:09:42.532Z,87.65
2018-07-03T11:10:42.524Z,88.13
2018-07-03T11:11:42.690Z,88.42
2018-07-03T11:12:42.543Z,89.29
2018-07-03T11:13:42.625Z,89.05
2018-07-03T11:14:42.573Z,89.92
2018-07-03T11:15:42.636Z,90.20
2018-07-03T11:16:42.725Z,90.69
2018-07-03T11:17:42.592Z,90.73
2018-07-03T11:18:42.520Z,90.73
2018-07-03T11:19:42.579Z,91.07
2018-07-03T11:20:42.528Z,91.17
2018-07-03T11:21:42.531Z,91.80
2018-07-03T11:22:42.566Z,91.22
2018-07-03T11:23:42.540Z,91.13
2018-07-03T11:24:42.542Z,91.80
2018-07-03T11:25:42.546Z,91.99
2018-07-03T11:26:42.548Z,91.80
2018-07-03T11:27:42.551Z,91.89
2018-07-03T11:28:42.555Z,91.89
2018-07-03T11:29:42.581Z,92.08
2018-07-03T11:30:42.562Z,92.08
2018-07-03T11:31:42.565Z,92.76
2018-07-03T11:32:42.569Z,92.76
2018-07-03T11:33:42.600Z,93.43
2018-07-03T11:34:42.670Z,92.76
2018-07-03T11:35:42.641Z,92.52
2018-07-03T11:36:42.583Z,93.05
2018-07-03T11:37:42.850Z,92.85
2018-07-03T11:38:42.590Z,92.85
2018-07-03T11:39:42.591Z,93.15
2018-07-03T11:40:42.594Z,92.66
2018-07-03T11:41:42.598Z,92.76
2018-07-03T11:42:42.606Z,92.85
2018-07-03T11:43:42.604Z,92.85
2018-07-03T11:44:42.611Z,92.95
2018-07-03T11:45:42.610Z,91.60
2018-07-03T11:46:43.453Z,91.89
2018-07-03T11:47:42.616Z,92.66
2018-07-03T11:48:42.618Z,91.80
2018-07-03T11:49:42.626Z,92.08
2018-07-03T11:50:42.625Z,92.08
2018-07-03T11:51:42.626Z,91.99
2018-07-03T11:52:42.630Z,92.18
2018-07-03T11:53:42.675Z,92.38
2018-07-03T11:54:42.637Z,91.89
2018-07-03T11:55:42.638Z,91.80
2018-07-03T11:56:42.643Z,92.08
2018-07-03T11:57:42.646Z,91.99
2018-07-03T11:58:42.653Z,91.60
2018-07-03T11:59:42.650Z,91.70
2018-07-03T12:00:42.655Z,91.22
2018-07-03T12:01:42.684Z,91.13
2018-07-03T12:02:42.660Z,91.89
2018-07-03T12:03:42.665Z,91.60
2018-07-03T12:04:42.667Z,91.80
2018-07-03T12:05:42.668Z,91.22
2018-07-03T12:06:42.672Z,91.03
2018-07-03T12:07:42.698Z,91.22
2018-07-03T12:08:42.677Z,91.03
2018-07-03T12:09:42.681Z,91.41
2018-07-03T12:10:42.681Z,91.99
2018-07-03T12:11:42.686Z,91.31
2018-07-03T12:12:42.690Z,91.27
2018-07-03T12:13:42.693Z,91.80
2018-07-03T12:14:42.696Z,91.13
2018-07-03T12:15:42.698Z,91.22
2018-07-03T12:16:42.701Z,91.75
2018-07-03T12:17:42.738Z,92.03
2018-07-03T12:18:42.707Z,91.36
2018-07-03T12:19:42.779Z,91.27
2018-07-03T12:20:42.718Z,91.27
2018-07-03T12:21:42.716Z,92.03
2018-07-03T12:22:42.724Z,92.13
2018-07-03T12:23:42.721Z,91.65
2018-07-03T12:24:42.727Z,91.46
2018-07-03T12:25:42.729Z,91.94
2018-07-03T12:26:42.731Z,92.42
2018-07-03T12:27:42.734Z,91.94
2018-07-03T12:28:42.737Z,92.03
2018-07-03T12:29:42.741Z,91.84
2018-07-03T12:30:42.744Z,92.80
2018-07-03T12:31:42.747Z,92.32
2018-07-03T12:32:42.750Z,92.13
2018-07-03T12:33:42.755Z,92.32
2018-07-03T12:34:42.757Z,92.42
2018-07-03T12:35:42.764Z,92.03
2018-07-03T12:36:42.807Z,92.80
2018-07-03T12:37:42.766Z,92.22
2018-07-03T12:38:42.779Z,92.22
2018-07-03T12:39:42.772Z,91.75
2018-07-03T12:40:42.777Z,91.46
2018-07-03T12:41:42.779Z,91.94
2018-07-03T12:42:42.781Z,91.27
2018-07-03T12:43:43.547Z,91.07
2018-07-03T12:44:42.789Z,91.46
2018-07-03T12:45:42.795Z,91.02
2018-07-03T12:46:42.794Z,91.31
2018-07-03T12:47:42.799Z,91.99
2018-07-03T12:48:42.802Z,91.41
2018-07-03T12:49:42.810Z,91.12
2018-07-03T12:50:42.851Z,91.02
2018-07-03T12:51:42.812Z,91.99
2018-07-03T12:54:42.212Z,91.21
2018-07-03T12:55:42.217Z,91.21
2018-07-03T12:56:42.218Z,91.12